If you wish to contribute or participate in the discussions about articles you are invited to join SKYbrary as a registered user

 Actions

Shimojishima Airport

From SKYbrary Wiki

RORS
Airport
ICAO: RORS – IATA: SHI
Summary
Name Shimojishima Airport
Region Asia and Pacific
Territory Japan JP.gif
Location Shimojishima, Okinawa Prefecture
Serving Miyakojima
Elevation 7.62 m
25 ft7.62 m
Coordinates 24° 49' 36.88" N, 125° 8' 56.86" E
Runways
Designator Length Width Surface ROPS
17/35 3000 m9,842.52 ft
61 m200.131 ft
ASP yes/yes


METAR
Observation RORS 210400Z VRB03KT 9999 -RA FEW011 SCT070 BKN/// 27/25 Q1009
Station Shimoji-Shima Island
Date/Time 21 April 2019 04:00:00
Wind direction °
Wind speed 03 kts
Lowest cloud amount few clouds
Temperature 27°C
Dew point 25°C
Humidity 88%
QNH 1009 hPa
Weather condition light rain

Shimojishima Airport is located on the island of Shimojishima in Miyakojima, Okinawa Prefecture, Japan.

Climatology

Humid Sub-tropical climate (Köppen climate classification Cfa)

Maps

Terrain

Loading map...

Airport Layout

Loading map...


Accidents & Serious Incidents at or in vicinity of RORS

None on SKYbrary